createdAt,value
2022-10-30T00:00:44.624Z,17.92
2022-10-30T00:01:44.692Z,17.94
2022-10-30T00:02:44.655Z,17.94
2022-10-30T00:03:44.549Z,17.95
2022-10-30T00:04:44.601Z,17.95
2022-10-30T00:05:44.541Z,17.94
2022-10-30T00:06:44.560Z,17.95
2022-10-30T00:07:44.507Z,17.97
2022-10-30T00:08:45.444Z,17.95
2022-10-30T00:09:44.483Z,17.97
2022-10-30T00:10:44.470Z,17.98
2022-10-30T00:11:44.474Z,17.97
2022-10-30T00:12:44.663Z,17.98
2022-10-30T00:13:44.443Z,17.98
2022-10-30T00:14:44.436Z,17.98
2022-10-30T00:15:44.423Z,18.00
2022-10-30T00:16:44.420Z,17.98
2022-10-30T00:17:44.415Z,17.98
2022-10-30T00:18:44.386Z,17.98
2022-10-30T00:19:44.374Z,18.00
2022-10-30T00:20:44.359Z,18.00
2022-10-30T00:21:44.376Z,17.98
2022-10-30T00:22:44.348Z,18.01
2022-10-30T00:23:44.383Z,18.00
2022-10-30T00:24:44.327Z,17.98
2022-10-30T00:25:44.327Z,18.00
2022-10-30T00:26:45.251Z,18.00
2022-10-30T00:27:44.278Z,17.98
2022-10-30T00:28:44.279Z,17.98
2022-10-30T00:29:44.320Z,18.00
2022-10-30T00:30:44.251Z,18.00
2022-10-30T00:31:44.254Z,17.98
2022-10-30T00:32:44.253Z,17.98
2022-10-30T00:33:44.220Z,17.95
2022-10-30T00:34:44.222Z,17.95
2022-10-30T00:35:44.361Z,17.95
2022-10-30T00:36:44.187Z,17.92
2022-10-30T00:37:44.192Z,17.92
2022-10-30T00:38:44.180Z,17.92
2022-10-30T00:39:44.152Z,17.92
2022-10-30T00:40:44.153Z,17.92
2022-10-30T00:41:44.122Z,17.87
2022-10-30T00:42:44.142Z,17.89
2022-10-30T00:43:44.124Z,17.90
2022-10-30T00:44:44.091Z,17.89
2022-10-30T00:45:44.075Z,17.89
2022-10-30T00:46:44.066Z,17.87
2022-10-30T00:47:44.055Z,17.86
2022-10-30T00:48:44.094Z,17.86
2022-10-30T00:49:44.037Z,17.86
2022-10-30T00:50:44.050Z,17.83
2022-10-30T00:51:44.009Z,17.85
2022-10-30T00:52:44.989Z,17.85
2022-10-30T00:53:43.978Z,17.83
2022-10-30T00:54:44.009Z,17.83
2022-10-30T00:55:43.978Z,17.83
2022-10-30T00:56:44.036Z,17.83
2022-10-30T00:57:43.986Z,17.83
2022-10-30T00:58:43.938Z,17.83
2022-10-30T00:59:43.922Z,17.85
2022-10-30T01:00:44.832Z,17.85
2022-10-30T01:01:43.994Z,17.83
2022-10-30T01:02:43.965Z,17.85
2022-10-30T01:03:43.885Z,17.82
2022-10-30T01:04:43.882Z,17.83
2022-10-30T01:05:43.841Z,17.82
2022-10-30T01:06:43.851Z,17.82
2022-10-30T01:07:43.828Z,17.83
2022-10-30T01:08:43.869Z,17.83
2022-10-30T01:09:43.825Z,17.83
2022-10-30T01:10:43.791Z,17.83
2022-10-30T01:11:43.805Z,17.83
2022-10-30T01:12:43.782Z,17.82
2022-10-30T01:13:43.762Z,17.82
2022-10-30T01:14:43.744Z,17.82
2022-10-30T01:15:43.749Z,17.80
2022-10-30T01:16:43.718Z,17.79
2022-10-30T01:17:43.739Z,17.80
2022-10-30T01:18:43.718Z,17.80
2022-10-30T01:19:43.697Z,17.78
2022-10-30T01:20:44.637Z,17.76
2022-10-30T01:21:43.707Z,17.74
2022-10-30T01:22:43.655Z,17.71
2022-10-30T01:23:43.636Z,17.70
2022-10-30T01:24:43.645Z,17.68
2022-10-30T01:25:43.630Z,17.65
2022-10-30T01:26:43.659Z,17.64
2022-10-30T01:27:43.587Z,17.63
2022-10-30T01:28:43.595Z,17.64
2022-10-30T01:29:43.588Z,17.63
2022-10-30T01:30:43.558Z,17.59
2022-10-30T01:31:43.567Z,17.56
2022-10-30T01:32:43.585Z,17.54
2022-10-30T01:33:43.520Z,17.52
2022-10-30T01:35:43.535Z,17.49
2022-10-30T01:36:43.501Z,17.48
2022-10-30T01:37:44.445Z,17.48
2022-10-30T01:38:43.476Z,17.46
2022-10-30T01:39:43.498Z,17.45
2022-10-30T01:40:43.458Z,17.45
2022-10-30T01:41:43.441Z,17.46
2022-10-30T01:42:43.451Z,17.44
2022-10-30T01:43:43.437Z,17.44
2022-10-30T01:44:43.434Z,17.42
2022-10-30T01:45:43.404Z,17.39
2022-10-30T01:46:43.392Z,17.39
2022-10-30T01:47:43.403Z,17.38
2022-10-30T01:48:43.384Z,17.36
2022-10-30T01:49:43.350Z,17.34
2022-10-30T01:50:43.337Z,17.30
2022-10-30T01:51:43.336Z,17.26
2022-10-30T01:52:43.356Z,17.26
2022-10-30T01:53:43.307Z,17.23
2022-10-30T01:54:43.302Z,17.20
2022-10-30T01:55:43.288Z,17.19
2022-10-30T01:56:43.299Z,17.19
2022-10-30T01:57:43.281Z,17.15
2022-10-30T01:58:43.256Z,17.14
2022-10-30T01:59:43.250Z,17.12
2022-10-30T02:00:43.272Z,17.09
2022-10-30T02:01:43.487Z,17.06
2022-10-30T02:02:43.351Z,17.05
2022-10-30T02:03:43.196Z,17.05
2022-10-30T02:04:43.186Z,16.99
2022-10-30T02:05:43.210Z,16.97
2022-10-30T02:06:44.157Z,16.96
2022-10-30T02:07:43.170Z,16.94
2022-10-30T02:08:43.137Z,16.93
2022-10-30T02:09:43.127Z,16.91
2022-10-30T02:10:43.149Z,16.89
2022-10-30T02:11:43.140Z,16.84
2022-10-30T02:12:43.098Z,16.81
2022-10-30T02:13:43.092Z,16.79
2022-10-30T02:14:43.097Z,16.76
2022-10-30T02:15:43.062Z,16.76
2022-10-30T02:16:43.070Z,16.76
2022-10-30T02:17:43.044Z,16.76
2022-10-30T02:18:43.131Z,16.75
2022-10-30T02:19:43.012Z,16.74
2022-10-30T02:20:43.974Z,16.72
2022-10-30T02:21:43.016Z,16.69
2022-10-30T02:22:43.065Z,16.66
2022-10-30T02:23:43.019Z,16.64
2022-10-30T02:24:42.969Z,16.64
2022-10-30T02:25:42.955Z,16.61
2022-10-30T02:26:42.935Z,16.58
2022-10-30T02:27:42.932Z,16.57
2022-10-30T02:28:42.934Z,16.54
2022-10-30T02:29:42.952Z,16.53
2022-10-30T02:30:42.896Z,16.50
2022-10-30T02:31:42.874Z,16.47
2022-10-30T02:32:42.889Z,16.47
2022-10-30T02:33:42.889Z,16.46
2022-10-30T02:34:42.869Z,16.42
2022-10-30T02:35:42.874Z,16.39
2022-10-30T02:36:42.828Z,16.35
2022-10-30T02:37:42.810Z,16.32
2022-10-30T02:38:42.799Z,16.29
2022-10-30T02:39:42.803Z,16.26
2022-10-30T02:40:42.787Z,16.24
2022-10-30T02:41:42.795Z,16.23
2022-10-30T02:42:42.764Z,16.20
2022-10-30T02:43:42.746Z,16.17
2022-10-30T02:44:42.746Z,16.16
2022-10-30T02:45:42.720Z,16.13
2022-10-30T02:46:42.750Z,16.15
2022-10-30T02:47:42.723Z,16.12
2022-10-30T02:48:42.704Z,16.12
2022-10-30T02:49:42.683Z,16.09
2022-10-30T02:50:42.663Z,16.09
2022-10-30T02:51:42.657Z,16.09
2022-10-30T02:52:42.673Z,16.05
2022-10-30T02:53:42.682Z,16.05
2022-10-30T02:54:42.631Z,16.05
2022-10-30T02:55:42.600Z,16.02
2022-10-30T02:56:42.594Z,16.02
2022-10-30T02:57:42.585Z,16.04
2022-10-30T02:58:42.839Z,16.02
2022-10-30T02:59:42.600Z,16.01
2022-10-30T03:00:42.559Z,16.00
2022-10-30T03:01:42.653Z,16.01
2022-10-30T03:02:42.682Z,16.00
2022-10-30T03:03:42.523Z,15.97
2022-10-30T03:04:42.548Z,15.94
2022-10-30T03:05:42.500Z,15.92
2022-10-30T03:06:42.479Z,15.91
2022-10-30T03:07:42.499Z,15.91
2022-10-30T03:08:42.484Z,15.88
2022-10-30T03:09:42.458Z,15.86
2022-10-30T03:10:42.449Z,15.83
2022-10-30T03:11:42.469Z,15.82
2022-10-30T03:12:42.442Z,15.80
2022-10-30T03:13:42.427Z,15.79
2022-10-30T03:14:42.396Z,15.79
2022-10-30T03:15:42.400Z,15.76
2022-10-30T03:16:42.451Z,15.76
2022-10-30T03:17:42.443Z,15.75
2022-10-30T03:18:42.363Z,15.72
2022-10-30T03:19:42.346Z,15.70
2022-10-30T03:20:42.345Z,15.68
2022-10-30T03:21:42.325Z,15.67
2022-10-30T03:22:42.311Z,15.62
2022-10-30T03:23:42.329Z,15.58
2022-10-30T03:24:42.674Z,15.54
2022-10-30T03:25:42.295Z,15.51
2022-10-30T03:26:42.263Z,15.47
2022-10-30T03:27:42.253Z,15.44
2022-10-30T03:28:42.284Z,15.43
2022-10-30T03:29:42.257Z,15.39
2022-10-30T03:30:42.215Z,15.36
2022-10-30T03:31:42.216Z,15.31
2022-10-30T03:32:42.197Z,15.27
2022-10-30T03:33:42.207Z,15.25
2022-10-30T03:34:42.203Z,15.25
2022-10-30T03:35:43.116Z,15.24
2022-10-30T03:36:42.169Z,15.21
2022-10-30T03:37:42.127Z,15.18
2022-10-30T03:38:42.130Z,15.15
2022-10-30T03:39:42.188Z,15.15
2022-10-30T03:40:42.103Z,15.11
2022-10-30T03:41:42.098Z,15.10
2022-10-30T03:42:42.088Z,15.10
2022-10-30T03:43:42.069Z,15.10
2022-10-30T03:44:42.066Z,15.07
2022-10-30T03:45:42.078Z,15.03
2022-10-30T03:46:42.051Z,15.00
2022-10-30T03:47:42.030Z,14.99
2022-10-30T03:48:42.040Z,14.97
2022-10-30T03:49:42.026Z,14.94
2022-10-30T03:50:41.983Z,14.94
2022-10-30T03:51:41.992Z,14.89
2022-10-30T03:52:41.973Z,14.89
2022-10-30T03:53:41.961Z,14.86
2022-10-30T03:54:41.973Z,14.88
2022-10-30T03:55:41.934Z,14.85
2022-10-30T03:56:41.924Z,14.84
2022-10-30T03:57:41.941Z,14.82
2022-10-30T03:58:41.903Z,14.82
2022-10-30T03:59:41.946Z,14.79
2022-10-30T04:00:41.890Z,14.79
2022-10-30T04:01:42.102Z,14.77
2022-10-30T04:02:41.887Z,14.72
2022-10-30T04:03:41.866Z,14.68
2022-10-30T04:04:41.889Z,14.65
2022-10-30T04:05:41.838Z,14.60
2022-10-30T04:06:41.887Z,14.59
2022-10-30T04:07:41.802Z,14.54
2022-10-30T04:08:41.790Z,14.53
2022-10-30T04:09:41.798Z,14.48
2022-10-30T04:10:41.870Z,14.47
2022-10-30T04:11:41.769Z,14.44
2022-10-30T04:12:41.769Z,14.44
2022-10-30T04:13:41.738Z,14.43
2022-10-30T04:14:41.724Z,14.43
2022-10-30T04:15:41.750Z,14.41
2022-10-30T04:16:41.700Z,14.37
2022-10-30T04:17:41.704Z,14.36
2022-10-30T04:18:41.697Z,14.33
2022-10-30T04:19:41.682Z,14.32
2022-10-30T04:20:41.660Z,14.30
2022-10-30T04:21:41.689Z,14.28
2022-10-30T04:22:41.639Z,14.28
2022-10-30T04:23:41.640Z,14.25
2022-10-30T04:24:41.632Z,14.25
2022-10-30T04:25:41.671Z,14.23
2022-10-30T04:26:41.641Z,14.18
2022-10-30T04:27:41.587Z,14.17
2022-10-30T04:28:41.571Z,14.15
2022-10-30T04:29:41.567Z,14.15
2022-10-30T04:30:41.572Z,14.12
2022-10-30T04:31:41.536Z,14.10
2022-10-30T04:32:41.543Z,14.08
2022-10-30T04:33:41.509Z,14.05
2022-10-30T04:34:41.513Z,14.04
2022-10-30T04:35:41.499Z,14.00
2022-10-30T04:36:41.481Z,13.97
2022-10-30T04:37:41.506Z,13.96
2022-10-30T04:38:41.468Z,13.93
2022-10-30T04:39:45.459Z,13.93
2022-10-30T04:40:42.441Z,13.95
2022-10-30T04:41:41.457Z,13.93
2022-10-30T04:42:41.418Z,13.93
2022-10-30T04:43:41.443Z,13.93
2022-10-30T04:44:41.434Z,13.92
2022-10-30T04:45:41.378Z,13.90
2022-10-30T04:46:41.382Z,13.90
2022-10-30T04:47:41.391Z,13.87
2022-10-30T04:48:41.338Z,13.87
2022-10-30T04:49:41.329Z,13.86
2022-10-30T04:50:41.323Z,13.86
2022-10-30T04:51:41.309Z,13.85
2022-10-30T04:52:41.328Z,13.81
2022-10-30T04:53:41.310Z,13.81
2022-10-30T04:54:41.275Z,13.79
2022-10-30T04:55:41.281Z,13.79
2022-10-30T04:56:41.258Z,13.78
2022-10-30T04:57:41.231Z,13.75
2022-10-30T04:58:41.283Z,13.72
2022-10-30T04:59:41.222Z,13.72
2022-10-30T05:00:41.221Z,13.71
2022-10-30T05:01:41.300Z,13.72
2022-10-30T05:02:41.361Z,13.71
2022-10-30T05:03:42.043Z,13.74
2022-10-30T05:04:41.230Z,13.74
2022-10-30T05:05:41.263Z,13.74
2022-10-30T05:06:41.139Z,13.71
2022-10-30T05:07:41.125Z,13.70
2022-10-30T05:08:41.134Z,13.68
2022-10-30T05:09:41.163Z,13.63
2022-10-30T05:10:41.110Z,13.60
2022-10-30T05:11:41.084Z,13.57
2022-10-30T05:12:41.079Z,13.54
2022-10-30T05:13:41.076Z,13.52
2022-10-30T05:14:41.047Z,13.49
2022-10-30T05:15:41.057Z,13.46
2022-10-30T05:16:41.043Z,13.42
2022-10-30T05:17:41.073Z,13.41
2022-10-30T05:18:41.001Z,13.38
2022-10-30T05:19:41.017Z,13.37
2022-10-30T05:20:41.008Z,13.37
2022-10-30T05:21:40.996Z,13.42
2022-10-30T05:22:40.978Z,13.44
2022-10-30T05:23:41.098Z,13.46
2022-10-30T05:24:40.953Z,13.49
2022-10-30T05:25:41.995Z,13.47
2022-10-30T05:26:40.907Z,13.49
2022-10-30T05:27:40.968Z,13.49
2022-10-30T05:28:40.932Z,13.49
2022-10-30T05:29:40.978Z,13.50
2022-10-30T05:30:40.889Z,13.53
2022-10-30T05:31:40.936Z,13.52
2022-10-30T05:32:40.880Z,13.52
2022-10-30T05:33:40.999Z,13.52
2022-10-30T05:34:40.834Z,13.49
2022-10-30T05:35:41.875Z,13.46
2022-10-30T05:36:40.797Z,13.44
2022-10-30T05:37:40.790Z,13.42
2022-10-30T05:38:40.802Z,13.38
2022-10-30T05:39:40.774Z,13.35
2022-10-30T05:40:40.752Z,13.28
2022-10-30T05:41:40.752Z,13.28
2022-10-30T05:42:40.731Z,13.27
2022-10-30T05:43:40.781Z,13.28
2022-10-30T05:44:59.823Z,13.30
2022-10-30T05:45:41.745Z,13.31
2022-10-30T05:46:40.704Z,13.33
2022-10-30T05:47:40.697Z,13.35
2022-10-30T05:48:40.697Z,13.35
2022-10-30T05:49:40.653Z,13.33
2022-10-30T05:50:40.652Z,13.31
2022-10-30T05:51:40.802Z,13.27
2022-10-30T05:52:40.622Z,13.27
2022-10-30T05:53:40.605Z,13.23
2022-10-30T05:54:40.607Z,13.20
2022-10-30T05:55:40.587Z,13.18
2022-10-30T05:56:40.608Z,13.18
2022-10-30T05:57:40.567Z,13.16
2022-10-30T05:58:40.558Z,13.13
2022-10-30T05:59:40.589Z,13.11
2022-10-30T06:00:40.532Z,13.08
2022-10-30T06:01:40.654Z,13.05
2022-10-30T06:02:40.593Z,13.01
2022-10-30T06:03:40.542Z,13.00
2022-10-30T06:04:40.503Z,12.97
2022-10-30T06:05:40.483Z,12.94
2022-10-30T06:06:40.490Z,12.94
2022-10-30T06:07:40.454Z,12.93
2022-10-30T06:08:40.475Z,12.93
2022-10-30T06:09:40.433Z,12.93
2022-10-30T06:10:40.404Z,12.95
2022-10-30T06:11:40.438Z,12.95
2022-10-30T06:12:40.414Z,12.95
2022-10-30T06:13:40.399Z,12.98
2022-10-30T06:14:40.375Z,12.97
2022-10-30T06:15:40.371Z,12.95
2022-10-30T06:16:40.360Z,12.94
2022-10-30T06:17:40.368Z,12.94
2022-10-30T06:18:40.369Z,12.93
2022-10-30T06:19:40.353Z,12.93
2022-10-30T06:20:40.348Z,12.90
2022-10-30T06:21:40.348Z,12.87
2022-10-30T06:22:40.298Z,12.85
2022-10-30T06:23:40.333Z,12.86
2022-10-30T06:24:40.296Z,12.90
2022-10-30T06:25:41.494Z,12.86
2022-10-30T06:26:40.272Z,12.85
2022-10-30T06:27:40.236Z,12.82
2022-10-30T06:28:40.250Z,12.79
2022-10-30T06:29:40.258Z,12.79
2022-10-30T06:30:40.252Z,12.76
2022-10-30T06:31:40.210Z,12.75
2022-10-30T06:32:40.184Z,12.78
2022-10-30T06:33:40.174Z,12.78
2022-10-30T06:34:40.178Z,12.79
2022-10-30T06:35:40.151Z,12.78
2022-10-30T06:36:41.145Z,12.78
2022-10-30T06:37:40.130Z,12.76
2022-10-30T06:38:40.108Z,12.75
2022-10-30T06:39:40.093Z,12.76
2022-10-30T06:40:40.117Z,12.79
2022-10-30T06:41:40.102Z,12.80
2022-10-30T06:42:40.079Z,12.83
2022-10-30T06:43:40.107Z,12.86
2022-10-30T06:44:40.097Z,12.90
2022-10-30T06:45:40.044Z,12.90
2022-10-30T06:46:40.033Z,12.87
2022-10-30T06:47:40.004Z,12.85
2022-10-30T06:48:40.073Z,12.82
2022-10-30T06:49:40.008Z,12.80
2022-10-30T06:50:40.026Z,12.79
2022-10-30T06:51:39.988Z,12.78
2022-10-30T06:52:39.957Z,12.78
2022-10-30T06:53:39.941Z,12.76
2022-10-30T06:54:39.934Z,12.76
2022-10-30T06:55:39.935Z,12.76
2022-10-30T06:56:40.014Z,12.76
2022-10-30T06:57:39.912Z,12.76
2022-10-30T06:58:39.883Z,12.78
2022-10-30T06:59:39.886Z,12.79
2022-10-30T07:00:39.941Z,12.79
2022-10-30T07:01:39.931Z,12.80
2022-10-30T07:02:39.914Z,12.82
2022-10-30T07:03:39.981Z,12.83
2022-10-30T07:04:39.832Z,12.85
2022-10-30T07:05:40.010Z,12.86
2022-10-30T07:06:39.797Z,12.86
2022-10-30T07:07:39.786Z,12.86
2022-10-30T07:08:39.832Z,12.85
2022-10-30T07:09:39.765Z,12.87
2022-10-30T07:10:39.769Z,12.87
2022-10-30T07:11:39.743Z,12.87
2022-10-30T07:12:39.750Z,12.90
2022-10-30T07:13:39.730Z,12.91
2022-10-30T07:14:39.730Z,12.94
2022-10-30T07:15:40.007Z,12.95
2022-10-30T07:16:39.720Z,12.95
2022-10-30T07:17:39.683Z,12.95
2022-10-30T07:18:39.661Z,12.97
2022-10-30T07:19:39.652Z,12.98
2022-10-30T07:20:39.743Z,13.01
2022-10-30T07:21:39.626Z,13.03
2022-10-30T07:22:39.646Z,13.09
2022-10-30T07:23:39.595Z,13.11
2022-10-30T07:24:39.620Z,13.13
2022-10-30T07:25:39.610Z,13.13
2022-10-30T07:26:39.625Z,13.16
2022-10-30T07:27:39.583Z,13.18
2022-10-30T07:28:39.555Z,13.23
2022-10-30T07:29:39.551Z,13.31
2022-10-30T07:30:39.545Z,13.39
2022-10-30T07:31:42.372Z,13.47
2022-10-30T07:32:40.555Z,13.54
2022-10-30T07:33:39.502Z,13.63
2022-10-30T07:34:39.485Z,13.70
2022-10-30T07:35:39.480Z,13.74
2022-10-30T07:36:39.458Z,13.78
2022-10-30T07:37:39.475Z,13.86
2022-10-30T07:38:39.490Z,13.90
2022-10-30T07:39:39.435Z,13.95
2022-10-30T07:40:39.430Z,13.99
2022-10-30T07:41:39.409Z,14.03
2022-10-30T07:42:39.418Z,14.07
2022-10-30T07:43:39.423Z,14.05
2022-10-30T07:44:39.406Z,14.05
2022-10-30T07:45:39.357Z,14.08
2022-10-30T07:46:39.411Z,14.12
2022-10-30T07:47:39.349Z,14.17
2022-10-30T07:48:39.397Z,14.23
2022-10-30T07:49:39.332Z,14.28
2022-10-30T07:50:39.354Z,14.28
2022-10-30T07:51:39.342Z,14.35
2022-10-30T07:52:39.279Z,14.37
2022-10-30T07:53:39.285Z,14.44
2022-10-30T07:54:39.279Z,14.48
2022-10-30T07:55:39.241Z,14.51
2022-10-30T07:56:39.265Z,14.54
2022-10-30T07:57:39.272Z,14.54
2022-10-30T07:58:45.084Z,14.55
2022-10-30T07:59:40.247Z,14.59
2022-10-30T08:00:39.225Z,14.63
2022-10-30T08:01:39.278Z,14.65
2022-10-30T08:02:39.294Z,14.66
2022-10-30T08:03:39.156Z,14.69
2022-10-30T08:04:39.193Z,14.73
2022-10-30T08:05:39.314Z,14.81
2022-10-30T08:06:39.133Z,14.85
2022-10-30T08:07:39.113Z,14.88
2022-10-30T08:08:43.161Z,14.94
2022-10-30T08:09:39.104Z,15.00
2022-10-30T08:10:39.107Z,15.04
2022-10-30T08:11:39.077Z,15.07
2022-10-30T08:12:39.095Z,15.11
2022-10-30T08:13:39.058Z,15.18
2022-10-30T08:14:39.051Z,15.24
2022-10-30T08:15:39.017Z,15.29
2022-10-30T08:16:39.049Z,15.37
2022-10-30T08:17:39.017Z,15.40
2022-10-30T08:18:39.025Z,15.44
2022-10-30T08:19:39.007Z,15.51
2022-10-30T08:20:39.682Z,15.57
2022-10-30T08:21:39.024Z,15.61
2022-10-30T08:22:39.141Z,15.68
2022-10-30T08:23:39.878Z,15.73
2022-10-30T08:24:38.920Z,15.80
2022-10-30T08:25:38.917Z,15.84
2022-10-30T08:26:38.920Z,15.90
2022-10-30T08:27:38.891Z,15.97
2022-10-30T08:28:38.907Z,16.01
2022-10-30T08:29:38.869Z,16.05
2022-10-30T08:30:38.857Z,16.12
2022-10-30T08:31:38.875Z,16.20
2022-10-30T08:32:38.829Z,16.23
2022-10-30T08:33:38.876Z,16.29
2022-10-30T08:34:39.277Z,16.33
2022-10-30T08:35:38.816Z,16.38
2022-10-30T08:36:38.795Z,16.43
2022-10-30T08:37:38.893Z,16.50
2022-10-30T08:38:38.773Z,16.53
2022-10-30T08:39:38.780Z,16.58
2022-10-30T08:40:38.745Z,16.64
2022-10-30T08:41:38.726Z,16.66
2022-10-30T08:42:38.720Z,16.71
2022-10-30T08:43:38.733Z,16.75
2022-10-30T08:44:38.686Z,16.78
2022-10-30T08:45:38.718Z,16.83
2022-10-30T08:46:38.703Z,16.86
2022-10-30T08:47:38.649Z,16.90
2022-10-30T08:48:38.659Z,16.94
2022-10-30T08:49:38.656Z,16.99
2022-10-30T08:50:38.672Z,17.05
2022-10-30T08:51:38.624Z,17.08
2022-10-30T08:52:38.644Z,17.14
2022-10-30T08:53:38.627Z,17.16
2022-10-30T08:54:38.610Z,17.20
2022-10-30T08:55:38.569Z,17.26
2022-10-30T08:56:38.554Z,17.31
2022-10-30T08:57:38.557Z,17.34
2022-10-30T08:58:39.587Z,17.39
2022-10-30T08:59:38.558Z,17.44
2022-10-30T09:00:38.558Z,17.48
2022-10-30T09:01:38.623Z,17.51
2022-10-30T09:02:38.607Z,17.54
2022-10-30T09:03:38.475Z,17.59
2022-10-30T09:04:38.487Z,17.60
2022-10-30T09:05:38.543Z,17.65
2022-10-30T09:06:38.500Z,17.68
2022-10-30T09:07:38.527Z,17.74
2022-10-30T09:08:38.542Z,17.78
2022-10-30T09:09:38.422Z,17.82
2022-10-30T09:10:38.414Z,17.87
2022-10-30T09:11:38.452Z,17.90
2022-10-30T09:12:38.479Z,17.95
2022-10-30T09:13:38.505Z,17.97
2022-10-30T09:14:38.419Z,18.03
2022-10-30T09:15:38.549Z,18.07
2022-10-30T09:16:38.343Z,18.08
2022-10-30T09:17:38.348Z,18.13
2022-10-30T09:18:38.354Z,18.16
2022-10-30T09:19:38.509Z,18.19
2022-10-30T09:20:38.295Z,18.23
2022-10-30T09:21:38.286Z,18.28
2022-10-30T09:22:38.267Z,18.31
2022-10-30T09:23:38.245Z,18.35
2022-10-30T09:24:38.256Z,18.40
2022-10-30T09:25:38.231Z,18.43
2022-10-30T09:26:38.253Z,18.47
2022-10-30T09:27:38.207Z,18.49
2022-10-30T09:28:38.208Z,18.52
2022-10-30T09:29:38.191Z,18.55
2022-10-30T09:30:38.171Z,18.58
2022-10-30T09:31:38.154Z,18.58
2022-10-30T09:32:38.206Z,18.60
2022-10-30T09:33:38.135Z,18.62
2022-10-30T09:34:38.131Z,18.66
2022-10-30T09:35:38.119Z,18.70
2022-10-30T09:36:38.111Z,18.73
2022-10-30T09:37:38.110Z,18.75
2022-10-30T09:38:38.120Z,18.77
2022-10-30T09:39:38.091Z,18.81
2022-10-30T09:40:38.065Z,18.83
2022-10-30T09:41:38.055Z,18.86
2022-10-30T09:42:38.072Z,18.89
2022-10-30T09:43:38.044Z,18.92
2022-10-30T09:44:38.034Z,18.96
2022-10-30T09:45:38.013Z,18.98
2022-10-30T09:46:38.036Z,19.02
2022-10-30T09:47:38.010Z,19.07
2022-10-30T09:48:37.998Z,19.11
2022-10-30T09:49:38.003Z,19.12
2022-10-30T09:50:39.791Z,19.14
2022-10-30T09:51:37.959Z,19.16
2022-10-30T09:52:38.885Z,19.21
2022-10-30T09:53:37.926Z,19.22
2022-10-30T09:54:37.929Z,19.26
2022-10-30T09:55:37.906Z,19.27
2022-10-30T09:56:37.876Z,19.29
2022-10-30T09:57:37.977Z,19.30
2022-10-30T09:58:37.905Z,19.31
2022-10-30T09:59:37.850Z,19.33
2022-10-30T10:00:37.844Z,19.36
2022-10-30T10:01:37.963Z,19.39
2022-10-30T10:02:37.975Z,19.41
2022-10-30T10:03:37.847Z,19.45
2022-10-30T10:04:37.795Z,19.48
2022-10-30T10:05:37.788Z,19.51
2022-10-30T10:06:37.772Z,19.52
2022-10-30T10:07:37.803Z,19.55
2022-10-30T10:08:37.759Z,19.58
2022-10-30T10:09:37.840Z,19.59
2022-10-30T10:10:37.737Z,19.63
2022-10-30T10:11:37.709Z,19.66
2022-10-30T10:12:37.722Z,19.70
2022-10-30T10:13:37.705Z,19.70
2022-10-30T10:14:37.790Z,19.73
2022-10-30T10:15:38.036Z,19.76
2022-10-30T10:16:37.669Z,19.79
2022-10-30T10:17:37.652Z,19.82
2022-10-30T10:18:37.646Z,19.82
2022-10-30T10:19:37.630Z,19.85
2022-10-30T10:20:37.657Z,19.88
2022-10-30T10:21:37.604Z,19.89
2022-10-30T10:22:37.624Z,19.92
2022-10-30T10:23:37.594Z,19.94
2022-10-30T10:24:37.567Z,19.96
2022-10-30T10:25:37.563Z,20.00
2022-10-30T10:26:37.577Z,20.02
2022-10-30T10:27:37.527Z,20.02
2022-10-30T10:28:37.534Z,20.03
2022-10-30T10:29:37.582Z,20.04
2022-10-30T10:30:37.508Z,20.07
2022-10-30T10:31:37.541Z,20.07
2022-10-30T10:32:37.494Z,20.07
2022-10-30T10:33:37.493Z,20.09
2022-10-30T10:34:37.472Z,20.10
2022-10-30T10:35:37.483Z,20.13
2022-10-30T10:36:37.433Z,20.13
2022-10-30T10:37:37.461Z,20.14
2022-10-30T10:38:37.405Z,20.16
2022-10-30T10:39:37.442Z,20.16
2022-10-30T10:40:37.464Z,20.21
2022-10-30T10:41:37.447Z,20.22
2022-10-30T10:42:38.851Z,20.26
2022-10-30T10:43:37.357Z,20.29
2022-10-30T10:44:42.620Z,20.32
2022-10-30T10:45:37.342Z,20.37
2022-10-30T10:46:37.345Z,20.39
2022-10-30T10:47:37.372Z,20.41
2022-10-30T10:48:37.300Z,20.44
2022-10-30T10:49:40.012Z,20.47
2022-10-30T10:50:37.290Z,20.50
2022-10-30T10:51:38.230Z,20.51
2022-10-30T10:52:37.317Z,20.51
2022-10-30T10:53:37.239Z,20.52
2022-10-30T10:54:38.216Z,20.56
2022-10-30T10:55:37.216Z,20.59
2022-10-30T10:56:38.210Z,20.60
2022-10-30T10:57:37.206Z,20.62
2022-10-30T10:58:37.249Z,20.60
2022-10-30T10:59:37.203Z,20.63
2022-10-30T11:00:37.190Z,20.66
2022-10-30T11:01:37.291Z,20.69
2022-10-30T11:02:37.271Z,20.74
2022-10-30T11:03:37.129Z,20.75
2022-10-30T11:04:37.157Z,20.80
2022-10-30T11:05:37.109Z,20.81
2022-10-30T11:06:37.144Z,20.84
2022-10-30T11:07:37.183Z,20.88
2022-10-30T11:08:37.135Z,20.93
2022-10-30T11:09:37.071Z,20.96
2022-10-30T11:10:37.049Z,20.97
2022-10-30T11:11:37.057Z,21.00
2022-10-30T11:12:37.725Z,21.02
2022-10-30T11:13:37.018Z,21.05
2022-10-30T11:14:37.023Z,21.05
2022-10-30T11:15:37.003Z,21.06
2022-10-30T11:16:37.028Z,21.06
2022-10-30T11:17:37.667Z,21.06
2022-10-30T11:18:36.966Z,21.07
2022-10-30T11:19:36.977Z,21.07
2022-10-30T11:20:36.968Z,21.11
2022-10-30T11:21:36.970Z,21.14
2022-10-30T11:22:36.955Z,21.15
2022-10-30T11:23:36.948Z,21.17
2022-10-30T11:24:36.921Z,21.18
2022-10-30T11:25:36.917Z,21.17
2022-10-30T11:26:36.878Z,21.18
2022-10-30T11:27:36.879Z,21.18
2022-10-30T11:28:36.875Z,21.20
2022-10-30T11:29:36.885Z,21.20
2022-10-30T11:30:36.868Z,21.21
2022-10-30T11:31:37.814Z,21.22
2022-10-30T11:32:36.933Z,21.22
2022-10-30T11:33:36.832Z,21.24
2022-10-30T11:34:37.318Z,21.25
2022-10-30T11:35:36.771Z,21.27
2022-10-30T11:36:36.776Z,21.27
2022-10-30T11:37:36.746Z,21.32
2022-10-30T11:38:36.733Z,21.35
2022-10-30T11:39:36.944Z,21.36
2022-10-30T11:40:37.564Z,21.39
2022-10-30T11:41:36.996Z,21.40
2022-10-30T11:42:36.714Z,21.42
2022-10-30T11:43:36.685Z,21.45
2022-10-30T11:44:36.683Z,21.46
2022-10-30T11:45:36.753Z,21.51
2022-10-30T11:46:36.651Z,21.54
2022-10-30T11:47:36.653Z,21.54
2022-10-30T11:48:37.248Z,21.55
2022-10-30T11:49:36.618Z,21.58
2022-10-30T11:50:36.607Z,21.58
2022-10-30T11:51:36.689Z,21.60
2022-10-30T11:52:37.541Z,21.60
2022-10-30T11:53:36.630Z,21.58
2022-10-30T11:54:36.566Z,21.60
2022-10-30T11:55:36.556Z,21.60
2022-10-30T11:56:36.594Z,21.61
2022-10-30T11:57:36.770Z,21.61
2022-10-30T11:58:36.529Z,21.61
2022-10-30T11:59:36.532Z,21.66
2022-10-30T12:00:36.497Z,21.70
2022-10-30T12:01:36.550Z,21.73
2022-10-30T12:03:36.513Z,21.77
2022-10-30T12:04:36.487Z,21.79
2022-10-30T12:05:36.565Z,21.79
2022-10-30T12:06:36.718Z,21.82
2022-10-30T12:07:36.439Z,21.82
2022-10-30T12:08:36.547Z,21.88
2022-10-30T12:09:36.495Z,21.95
2022-10-30T12:10:36.393Z,22.00
2022-10-30T12:11:36.430Z,22.11
2022-10-30T12:12:36.458Z,22.20
2022-10-30T12:13:38.022Z,22.29
2022-10-30T12:14:36.426Z,22.33
2022-10-30T12:15:36.336Z,22.38
2022-10-30T12:16:36.326Z,22.41
2022-10-30T12:17:36.428Z,22.43
2022-10-30T12:18:37.790Z,22.43
2022-10-30T12:19:36.340Z,22.41
2022-10-30T12:20:36.277Z,22.41
2022-10-30T12:21:36.408Z,22.41
2022-10-30T12:22:36.358Z,22.43
2022-10-30T12:23:36.229Z,22.45
2022-10-30T12:24:36.253Z,22.47
2022-10-30T12:25:36.469Z,22.47
2022-10-30T12:26:36.250Z,22.45
2022-10-30T12:27:36.199Z,22.45
2022-10-30T12:28:36.267Z,22.41
2022-10-30T12:30:02.850Z,22.41
2022-10-30T12:30:37.248Z,22.38
2022-10-30T12:31:36.207Z,22.36
2022-10-30T12:32:39.628Z,22.39
2022-10-30T12:33:36.241Z,22.38
2022-10-30T12:34:36.138Z,22.38
2022-10-30T12:35:36.127Z,22.41
2022-10-30T12:36:36.161Z,22.43
2022-10-30T12:37:36.154Z,22.44
2022-10-30T12:38:36.157Z,22.45
2022-10-30T12:39:36.134Z,22.50
2022-10-30T12:40:36.113Z,22.51
2022-10-30T12:41:36.211Z,22.54
2022-10-30T12:42:37.534Z,22.59
2022-10-30T12:43:36.042Z,22.63
2022-10-30T12:44:36.060Z,22.68
2022-10-30T12:45:36.005Z,22.69
2022-10-30T12:46:36.260Z,22.66
2022-10-30T12:47:36.005Z,22.62
2022-10-30T12:48:36.017Z,22.59
2022-10-30T12:49:36.123Z,22.57
2022-10-30T12:50:35.947Z,22.59
2022-10-30T12:51:35.928Z,22.57
2022-10-30T12:52:35.922Z,22.59
2022-10-30T12:53:36.249Z,22.57
2022-10-30T12:54:35.925Z,22.55